Gassoway, Louisiana
Current Conditions -  °F | °C
As of 5:53 PM on Tuesday 25 Nov 2014 (Local Time) from KTVR Reporting Station
Clear Clear  
Wind Chill: 41°   Ceiling: Unl
Heat Index: 41°   Visibility: 10mi
Dew Point: 31°   Wind: 3mph
Humidity: 67%   Direction: 340°NNW
Pressure: 30.21"   Gusts: NA
Location:  32.8408°N, 91.231°W
Report Text: KTVR 252353Z AUTO 34003KT 10SM CLR 05/M01 A3021 RMK AO2 SLP239 T00501006 10111 20050 51009
Loading
Personal Weather Stations






























Interactive Weather Map New forecast layout! Learn more

10-Day Weather Forecast

Advertisements
Track Severe Weather on mobile